Cicero, IN

1:23 AM EDT on June 26, 2017 (GMT -0400)
MD8428 | | Change Station
Active Advisory: Flood Warning

Elev 820 ft 40.11 °N, 86.07 °W | Updated 39 days ago

Clear
Clear
68.0 °F
Feels Like 68.0 °F
N
-
Wind Variable Wind from North

Today
High -- | Low -- °F
--% Chance of Precip.
Yesterday
High -- | Low -- °F
Precip. -- in
Pressure 30.15 in
Visibility 10.0 miles
Clouds Clear
Dew Point 62.0 °F
Humidity 82%
Rainfall in
Snow Depth Not available.
6:16 AM 9:17 PM
Waxing Crescent, 7% visible
METAR KTYQ 260515Z AUTO 28004KT 10SM CLR 14/10 A3015 RMK AO2 T01380095
Pressure 30.15 in
Visibility 10.0 miles
Clouds Clear
Dew Point 62.0 °F
Humidity 82%
Rainfall in
Snow Depth Not available.
6:16 AM 9:17 PM
Waxing Crescent, 7% visible
METAR KTYQ 260515Z AUTO 28004KT 10SM CLR 14/10 A3015 RMK AO2 T01380095

Get Your Daily Forecast Email!

Thanks for signing up!

Be on the lookout for a verification email in your inbox.

You'll start receiving severe weather alerts in your inbox..

×

10-Day Weather Forecast

Almanac

Astronomy

Jun. 26, 2017 Rise Set
Actual Time
Civil Twilight
Nautical Twilight
Astronomical Twilight
Moon
Length of Visible Light
Length of Day
Tomorrow will be .
, % of the Moon is Illuminated

Today's Extremes

State Highs State Lows

Community

WunderPhotos

Category 6

Welcome to Category 6. This is the collective home for Weather Underground's featured writeups by Dr. Jeff Masters (right), Bob Henson (left), Chris Burt, and other regular contributors.

Nearby

Air Quality

  Air Quality AQ Index Pollutant
Not available.

Snow Depth

Station Depth Elevation

Earthquake Activity

City Distance Mag. Time & Date
Minimum magnitude displayed is 2.5.

Coastal Water Temperatures

Place Temperature

Stations

Nearby Weather Stations

Station Location Temp. Windchill Dew Point Humidity Wind Precip. Elev Updated Type
                   

Watches & Warnings

Flood Warning
Issued: 8:22 PM EDT Jun. 25, 2017 – National Weather Service

The Flood Warning continues for
the White River at Noblesville.
* Until Monday afternoon.
* At 7:45 PM Sunday the stage was 14.6 feet.
* Flood stage is 14.0 feet.
* Minor flooding is occurring.
* Forecast... the river will continue to fall to below flood stage by
after midnight tomorrow.
* At 14.5 feet... Edith Avenue begins to flood near the Potter bridge
area. Flooding begins in residential areas along east 116th street
in the Trails End area, along east 146th street, and sr 19 just
north of sr 32.


Lat... Lon 4011 8596 4008 8597 3995 8605 3996 8607
      4006 8602 4013 8598